Terminal Aerodrome Forecast
Issued by NWS Billings, MT

Home | Current Version | Previous Version | Text Only | Print | Product List | Glossary On
Versions: 1 2 3 4 5 6 7 8 9 10 11 12 13 14 15 16 17 18 19 20 21 22 23 24
000
FTUS45 KBYZ 211740
TAFMLS
TAF
KMLS 211740Z 2118/2218 30005KT P6SM OVC070
     FM212100 30015G25KT P6SM VCTS SCT060CB BKN080
     FM220530 35006KT P6SM SCT015 OVC050=

USA.gov is the U.S. government's official web portal to all federal, state and local government web resources and services.